sensor_id;sensor_type;location;lat;lon;timestamp;P1;durP1;ratioP1;P2;durP2;ratioP2
75548;SDS011;64133;56.002;37.208;2023-07-13T00:00:27;6.22;;;1.42;;
75548;SDS011;64133;56.002;37.208;2023-07-13T00:05:32;2.12;;;1.20;;
75548;SDS011;64133;56.002;37.208;2023-07-13T00:10:39;2.30;;;1.15;;
75548;SDS011;64133;56.002;37.208;2023-07-13T00:15:44;2.17;;;0.80;;
75548;SDS011;64133;56.002;37.208;2023-07-13T00:20:52;3.95;;;0.93;;
75548;SDS011;64133;56.002;37.208;2023-07-13T00:25:57;2.20;;;1.10;;
75548;SDS011;64133;56.002;37.208;2023-07-13T00:31:04;1.60;;;0.90;;
75548;SDS011;64133;56.002;37.208;2023-07-13T00:36:09;2.35;;;1.05;;
75548;SDS011;64133;56.002;37.208;2023-07-13T00:41:13;2.70;;;1.15;;
75548;SDS011;64133;56.002;37.208;2023-07-13T00:46:23;2.00;;;0.90;;
75548;SDS011;64133;56.002;37.208;2023-07-13T00:51:30;2.12;;;1.12;;
75548;SDS011;64133;56.002;37.208;2023-07-13T00:56:35;3.00;;;1.15;;
75548;SDS011;64133;56.002;37.208;2023-07-13T01:01:39;2.08;;;1.05;;
75548;SDS011;64133;56.002;37.208;2023-07-13T01:06:44;2.87;;;0.90;;
75548;SDS011;64133;56.002;37.208;2023-07-13T01:11:49;2.12;;;1.20;;
75548;SDS011;64133;56.002;37.208;2023-07-13T01:16:54;10.75;;;1.45;;
75548;SDS011;64133;56.002;37.208;2023-07-13T01:21:59;3.30;;;1.20;;
75548;SDS011;64133;56.002;37.208;2023-07-13T01:27:05;3.17;;;0.88;;
75548;SDS011;64133;56.002;37.208;2023-07-13T01:32:10;1.87;;;0.85;;
75548;SDS011;64133;56.002;37.208;2023-07-13T01:37:14;1.75;;;0.90;;
75548;SDS011;64133;56.002;37.208;2023-07-13T01:42:19;3.25;;;1.50;;
75548;SDS011;64133;56.002;37.208;2023-07-13T01:47:24;2.05;;;0.80;;
75548;SDS011;64133;56.002;37.208;2023-07-13T01:52:32;4.28;;;1.70;;
75548;SDS011;64133;56.002;37.208;2023-07-13T01:57:36;2.52;;;1.57;;
75548;SDS011;64133;56.002;37.208;2023-07-13T02:02:41;2.10;;;1.20;;
75548;SDS011;64133;56.002;37.208;2023-07-13T02:07:46;2.37;;;1.20;;
75548;SDS011;64133;56.002;37.208;2023-07-13T02:12:51;1.67;;;1.07;;
75548;SDS011;64133;56.002;37.208;2023-07-13T02:17:55;9.95;;;1.10;;
75548;SDS011;64133;56.002;37.208;2023-07-13T02:23:00;5.67;;;1.25;;
75548;SDS011;64133;56.002;37.208;2023-07-13T02:28:05;2.55;;;1.20;;
75548;SDS011;64133;56.002;37.208;2023-07-13T02:33:10;5.08;;;0.88;;
75548;SDS011;64133;56.002;37.208;2023-07-13T02:38:16;3.25;;;1.22;;
75548;SDS011;64133;56.002;37.208;2023-07-13T02:43:21;7.55;;;1.25;;
75548;SDS011;64133;56.002;37.208;2023-07-13T02:48:25;2.50;;;1.45;;
75548;SDS011;64133;56.002;37.208;2023-07-13T02:53:30;2.05;;;1.10;;
75548;SDS011;64133;56.002;37.208;2023-07-13T02:58:35;2.35;;;1.17;;
75548;SDS011;64133;56.002;37.208;2023-07-13T03:08:53;2.55;;;1.62;;
75548;SDS011;64133;56.002;37.208;2023-07-13T03:13:58;1.85;;;1.22;;
75548;SDS011;64133;56.002;37.208;2023-07-13T03:19:03;3.12;;;1.30;;
75548;SDS011;64133;56.002;37.208;2023-07-13T03:24:08;5.50;;;1.60;;
75548;SDS011;64133;56.002;37.208;2023-07-13T03:29:15;2.33;;;1.00;;
75548;SDS011;64133;56.002;37.208;2023-07-13T03:34:20;2.55;;;1.57;;
75548;SDS011;64133;56.002;37.208;2023-07-13T03:39:25;2.58;;;1.02;;
75548;SDS011;64133;56.002;37.208;2023-07-13T03:44:32;2.45;;;1.25;;
75548;SDS011;64133;56.002;37.208;2023-07-13T03:49:37;2.27;;;1.47;;
75548;SDS011;64133;56.002;37.208;2023-07-13T03:54:42;2.70;;;1.12;;
75548;SDS011;64133;56.002;37.208;2023-07-13T03:59:48;2.05;;;1.22;;
75548;SDS011;64133;56.002;37.208;2023-07-13T04:04:52;1.95;;;1.27;;
75548;SDS011;64133;56.002;37.208;2023-07-13T04:09:57;2.45;;;1.40;;
75548;SDS011;64133;56.002;37.208;2023-07-13T04:15:05;4.62;;;1.32;;
75548;SDS011;64133;56.002;37.208;2023-07-13T04:20:11;3.12;;;1.42;;
75548;SDS011;64133;56.002;37.208;2023-07-13T04:25:16;2.27;;;1.22;;
75548;SDS011;64133;56.002;37.208;2023-07-13T04:35:35;2.47;;;1.02;;
75548;SDS011;64133;56.002;37.208;2023-07-13T04:40:40;2.67;;;1.12;;
75548;SDS011;64133;56.002;37.208;2023-07-13T04:45:45;2.42;;;1.07;;
75548;SDS011;64133;56.002;37.208;2023-07-13T04:50:55;2.58;;;1.10;;
75548;SDS011;64133;56.002;37.208;2023-07-13T04:55:59;4.30;;;1.52;;
75548;SDS011;64133;56.002;37.208;2023-07-13T05:01:05;3.92;;;1.22;;
75548;SDS011;64133;56.002;37.208;2023-07-13T05:06:10;2.67;;;1.10;;
75548;SDS011;64133;56.002;37.208;2023-07-13T05:11:14;3.33;;;1.32;;
75548;SDS011;64133;56.002;37.208;2023-07-13T05:16:19;2.85;;;1.55;;
75548;SDS011;64133;56.002;37.208;2023-07-13T05:21:24;2.50;;;1.47;;
75548;SDS011;64133;56.002;37.208;2023-07-13T05:26:29;3.95;;;1.20;;
75548;SDS011;64133;56.002;37.208;2023-07-13T05:31:34;2.72;;;1.22;;
75548;SDS011;64133;56.002;37.208;2023-07-13T05:36:39;2.08;;;1.10;;
75548;SDS011;64133;56.002;37.208;2023-07-13T05:41:44;2.70;;;1.40;;
75548;SDS011;64133;56.002;37.208;2023-07-13T05:46:50;2.60;;;1.45;;
75548;SDS011;64133;56.002;37.208;2023-07-13T05:51:55;2.85;;;1.42;;
75548;SDS011;64133;56.002;37.208;2023-07-13T05:57:00;2.17;;;1.05;;
75548;SDS011;64133;56.002;37.208;2023-07-13T06:02:05;5.28;;;1.12;;
75548;SDS011;64133;56.002;37.208;2023-07-13T06:07:10;3.60;;;1.72;;
75548;SDS011;64133;56.002;37.208;2023-07-13T06:12:15;4.45;;;1.20;;
75548;SDS011;64133;56.002;37.208;2023-07-13T06:17:20;7.58;;;1.80;;
75548;SDS011;64133;56.002;37.208;2023-07-13T06:22:24;2.00;;;1.00;;
75548;SDS011;64133;56.002;37.208;2023-07-13T06:27:29;3.77;;;1.50;;
75548;SDS011;64133;56.002;37.208;2023-07-13T06:32:34;2.55;;;1.22;;
75548;SDS011;64133;56.002;37.208;2023-07-13T06:37:39;3.20;;;1.32;;
75548;SDS011;64133;56.002;37.208;2023-07-13T06:42:44;3.20;;;1.27;;
75548;SDS011;64133;56.002;37.208;2023-07-13T06:47:48;2.22;;;1.10;;
75548;SDS011;64133;56.002;37.208;2023-07-13T06:52:53;2.10;;;1.00;;
75548;SDS011;64133;56.002;37.208;2023-07-13T06:57:58;4.00;;;1.00;;
75548;SDS011;64133;56.002;37.208;2023-07-13T07:03:03;2.60;;;1.07;;
75548;SDS011;64133;56.002;37.208;2023-07-13T07:08:08;2.30;;;1.12;;
75548;SDS011;64133;56.002;37.208;2023-07-13T07:13:13;2.15;;;1.12;;
75548;SDS011;64133;56.002;37.208;2023-07-13T07:18:17;6.67;;;1.60;;
75548;SDS011;64133;56.002;37.208;2023-07-13T07:23:22;7.45;;;2.80;;
75548;SDS011;64133;56.002;37.208;2023-07-13T07:28:27;7.05;;;1.40;;
75548;SDS011;64133;56.002;37.208;2023-07-13T07:33:32;2.37;;;1.25;;
75548;SDS011;64133;56.002;37.208;2023-07-13T07:38:37;2.92;;;1.40;;
75548;SDS011;64133;56.002;37.208;2023-07-13T07:49:30;3.52;;;1.05;;
75548;SDS011;64133;56.002;37.208;2023-07-13T07:54:39;7.05;;;1.80;;
75548;SDS011;64133;56.002;37.208;2023-07-13T08:04:48;4.40;;;1.77;;
75548;SDS011;64133;56.002;37.208;2023-07-13T08:10:11;3.27;;;1.92;;
75548;SDS011;64133;56.002;37.208;2023-07-13T08:15:17;4.22;;;1.40;;
75548;SDS011;64133;56.002;37.208;2023-07-13T08:20:22;5.87;;;1.50;;
75548;SDS011;64133;56.002;37.208;2023-07-13T08:25:27;2.55;;;1.12;;
75548;SDS011;64133;56.002;37.208;2023-07-13T08:30:35;4.58;;;1.67;;
75548;SDS011;64133;56.002;37.208;2023-07-13T08:35:41;3.75;;;1.30;;
75548;SDS011;64133;56.002;37.208;2023-07-13T08:40:50;3.50;;;1.50;;
75548;SDS011;64133;56.002;37.208;2023-07-13T08:46:02;4.12;;;1.30;;
75548;SDS011;64133;56.002;37.208;2023-07-13T08:51:11;3.02;;;1.32;;
75548;SDS011;64133;56.002;37.208;2023-07-13T08:56:17;1.80;;;0.90;;
75548;SDS011;64133;56.002;37.208;2023-07-13T09:06:45;2.10;;;1.00;;
75548;SDS011;64133;56.002;37.208;2023-07-13T09:11:52;3.42;;;1.57;;
75548;SDS011;64133;56.002;37.208;2023-07-13T09:16:56;6.53;;;1.52;;
75548;SDS011;64133;56.002;37.208;2023-07-13T09:22:02;3.45;;;1.42;;
75548;SDS011;64133;56.002;37.208;2023-07-13T09:27:14;5.33;;;1.40;;
75548;SDS011;64133;56.002;37.208;2023-07-13T09:32:19;11.60;;;3.08;;
75548;SDS011;64133;56.002;37.208;2023-07-13T09:37:28;3.85;;;1.37;;
75548;SDS011;64133;56.002;37.208;2023-07-13T09:42:30;3.70;;;1.85;;
75548;SDS011;64133;56.002;37.208;2023-07-13T09:47:39;2.52;;;1.40;;
75548;SDS011;64133;56.002;37.208;2023-07-13T09:57:47;3.12;;;1.98;;
75548;SDS011;64133;56.002;37.208;2023-07-13T10:03:00;3.55;;;1.65;;
75548;SDS011;64133;56.002;37.208;2023-07-13T10:08:09;4.58;;;2.00;;
75548;SDS011;64133;56.002;37.208;2023-07-13T10:13:34;5.87;;;1.92;;
75548;SDS011;64133;56.002;37.208;2023-07-13T10:18:42;4.10;;;1.87;;
75548;SDS011;64133;56.002;37.208;2023-07-13T10:23:50;2.58;;;1.57;;
75548;SDS011;64133;56.002;37.208;2023-07-13T10:28:59;2.85;;;1.60;;
75548;SDS011;64133;56.002;37.208;2023-07-13T10:34:04;2.87;;;1.45;;
75548;SDS011;64133;56.002;37.208;2023-07-13T10:39:13;2.50;;;1.00;;
75548;SDS011;64133;56.002;37.208;2023-07-13T10:44:21;4.22;;;1.60;;
75548;SDS011;64133;56.002;37.208;2023-07-13T10:49:30;3.55;;;1.62;;
75548;SDS011;64133;56.002;37.208;2023-07-13T10:54:34;5.90;;;1.90;;
75548;SDS011;64133;56.002;37.208;2023-07-13T10:59:39;6.60;;;1.70;;
75548;SDS011;64133;56.002;37.208;2023-07-13T11:04:47;3.42;;;1.57;;
75548;SDS011;64133;56.002;37.208;2023-07-13T11:09:52;4.33;;;1.50;;
75548;SDS011;64133;56.002;37.208;2023-07-13T11:15:04;2.85;;;1.30;;
75548;SDS011;64133;56.002;37.208;2023-07-13T11:20:19;3.58;;;1.42;;
75548;SDS011;64133;56.002;37.208;2023-07-13T11:25:30;3.60;;;1.70;;
75548;SDS011;64133;56.002;37.208;2023-07-13T11:30:36;6.67;;;1.60;;
75548;SDS011;64133;56.002;37.208;2023-07-13T11:35:44;2.90;;;1.55;;
75548;SDS011;64133;56.002;37.208;2023-07-13T11:40:53;2.77;;;1.60;;
75548;SDS011;64133;56.002;37.208;2023-07-13T11:45:55;7.12;;;1.57;;
75548;SDS011;64133;56.002;37.208;2023-07-13T11:51:04;3.85;;;1.72;;
75548;SDS011;64133;56.002;37.208;2023-07-13T11:56:08;2.95;;;1.27;;
75548;SDS011;64133;56.002;37.208;2023-07-13T12:01:16;4.05;;;1.52;;
75548;SDS011;64133;56.002;37.208;2023-07-13T12:06:30;2.62;;;1.72;;
75548;SDS011;64133;56.002;37.208;2023-07-13T12:11:35;3.50;;;1.70;;
75548;SDS011;64133;56.002;37.208;2023-07-13T12:16:40;4.03;;;1.72;;
75548;SDS011;64133;56.002;37.208;2023-07-13T12:21:45;4.10;;;1.80;;
75548;SDS011;64133;56.002;37.208;2023-07-13T12:26:53;3.15;;;1.90;;
75548;SDS011;64133;56.002;37.208;2023-07-13T12:31:58;5.87;;;2.37;;
75548;SDS011;64133;56.002;37.208;2023-07-13T12:37:03;3.60;;;2.20;;
75548;SDS011;64133;56.002;37.208;2023-07-13T12:42:18;5.70;;;2.33;;
75548;SDS011;64133;56.002;37.208;2023-07-13T12:47:24;4.28;;;1.95;;
75548;SDS011;64133;56.002;37.208;2023-07-13T12:52:30;6.28;;;2.00;;
75548;SDS011;64133;56.002;37.208;2023-07-13T12:57:39;4.20;;;1.95;;
75548;SDS011;64133;56.002;37.208;2023-07-13T13:02:44;4.15;;;2.02;;
75548;SDS011;64133;56.002;37.208;2023-07-13T13:07:49;8.15;;;2.22;;
75548;SDS011;64133;56.002;37.208;2023-07-13T13:12:53;4.22;;;2.12;;
75548;SDS011;64133;56.002;37.208;2023-07-13T13:17:58;3.75;;;2.05;;
75548;SDS011;64133;56.002;37.208;2023-07-13T13:23:04;4.78;;;2.33;;
75548;SDS011;64133;56.002;37.208;2023-07-13T13:28:13;5.10;;;2.42;;
75548;SDS011;64133;56.002;37.208;2023-07-13T13:33:20;4.28;;;2.22;;
75548;SDS011;64133;56.002;37.208;2023-07-13T13:38:27;3.40;;;1.45;;
75548;SDS011;64133;56.002;37.208;2023-07-13T13:43:31;3.33;;;1.60;;
75548;SDS011;64133;56.002;37.208;2023-07-13T13:48:36;4.37;;;2.10;;
75548;SDS011;64133;56.002;37.208;2023-07-13T13:53:44;4.03;;;2.45;;
75548;SDS011;64133;56.002;37.208;2023-07-13T13:58:49;4.85;;;2.33;;
75548;SDS011;64133;56.002;37.208;2023-07-13T14:03:54;4.83;;;2.20;;
75548;SDS011;64133;56.002;37.208;2023-07-13T14:08:59;4.65;;;1.52;;
75548;SDS011;64133;56.002;37.208;2023-07-13T14:14:04;6.62;;;2.47;;
75548;SDS011;64133;56.002;37.208;2023-07-13T14:19:09;2.58;;;1.90;;
75548;SDS011;64133;56.002;37.208;2023-07-13T14:24:14;4.45;;;2.22;;
75548;SDS011;64133;56.002;37.208;2023-07-13T14:29:19;4.15;;;2.10;;
75548;SDS011;64133;56.002;37.208;2023-07-13T14:34:24;3.35;;;1.65;;
75548;SDS011;64133;56.002;37.208;2023-07-13T14:39:31;3.75;;;1.60;;
75548;SDS011;64133;56.002;37.208;2023-07-13T14:44:37;3.70;;;2.02;;
75548;SDS011;64133;56.002;37.208;2023-07-13T14:49:42;3.33;;;1.70;;
75548;SDS011;64133;56.002;37.208;2023-07-13T14:54:46;4.00;;;1.87;;
75548;SDS011;64133;56.002;37.208;2023-07-13T14:59:51;3.72;;;1.55;;
75548;SDS011;64133;56.002;37.208;2023-07-13T15:04:56;3.90;;;1.82;;
75548;SDS011;64133;56.002;37.208;2023-07-13T15:10:04;7.22;;;1.67;;
75548;SDS011;64133;56.002;37.208;2023-07-13T15:15:10;4.42;;;1.92;;
75548;SDS011;64133;56.002;37.208;2023-07-13T15:20:23;3.72;;;1.40;;
75548;SDS011;64133;56.002;37.208;2023-07-13T15:25:29;4.95;;;1.77;;
75548;SDS011;64133;56.002;37.208;2023-07-13T15:30:34;4.30;;;1.77;;
75548;SDS011;64133;56.002;37.208;2023-07-13T15:35:38;4.65;;;1.70;;
75548;SDS011;64133;56.002;37.208;2023-07-13T15:40:44;7.92;;;1.95;;
75548;SDS011;64133;56.002;37.208;2023-07-13T15:45:49;4.00;;;1.45;;
75548;SDS011;64133;56.002;37.208;2023-07-13T15:50:54;2.42;;;1.45;;
75548;SDS011;64133;56.002;37.208;2023-07-13T15:55:59;4.03;;;2.15;;
75548;SDS011;64133;56.002;37.208;2023-07-13T16:01:04;4.85;;;1.72;;
75548;SDS011;64133;56.002;37.208;2023-07-13T16:06:13;3.62;;;1.72;;
75548;SDS011;64133;56.002;37.208;2023-07-13T16:11:20;5.45;;;2.10;;
75548;SDS011;64133;56.002;37.208;2023-07-13T16:16:24;3.08;;;1.65;;
75548;SDS011;64133;56.002;37.208;2023-07-13T16:21:29;3.60;;;1.32;;
75548;SDS011;64133;56.002;37.208;2023-07-13T16:26:33;3.37;;;1.82;;
75548;SDS011;64133;56.002;37.208;2023-07-13T16:31:42;2.42;;;1.50;;
75548;SDS011;64133;56.002;37.208;2023-07-13T16:36:50;4.70;;;1.50;;
75548;SDS011;64133;56.002;37.208;2023-07-13T16:41:55;4.50;;;1.85;;
75548;SDS011;64133;56.002;37.208;2023-07-13T16:46:59;5.22;;;1.82;;
75548;SDS011;64133;56.002;37.208;2023-07-13T16:52:04;6.35;;;2.12;;
75548;SDS011;64133;56.002;37.208;2023-07-13T16:57:13;6.37;;;2.22;;
75548;SDS011;64133;56.002;37.208;2023-07-13T17:02:28;3.45;;;1.92;;
75548;SDS011;64133;56.002;37.208;2023-07-13T17:07:35;4.10;;;2.17;;
75548;SDS011;64133;56.002;37.208;2023-07-13T17:12:40;7.80;;;2.27;;
75548;SDS011;64133;56.002;37.208;2023-07-13T17:17:47;4.60;;;2.45;;
75548;SDS011;64133;56.002;37.208;2023-07-13T17:22:52;3.80;;;1.85;;
75548;SDS011;64133;56.002;37.208;2023-07-13T17:27:58;3.33;;;1.55;;
75548;SDS011;64133;56.002;37.208;2023-07-13T17:33:07;3.00;;;1.57;;
75548;SDS011;64133;56.002;37.208;2023-07-13T17:38:13;3.42;;;1.80;;
75548;SDS011;64133;56.002;37.208;2023-07-13T17:43:18;5.50;;;2.10;;
75548;SDS011;64133;56.002;37.208;2023-07-13T17:48:23;5.50;;;2.10;;
75548;SDS011;64133;56.002;37.208;2023-07-13T17:53:28;3.42;;;1.67;;
75548;SDS011;64133;56.002;37.208;2023-07-13T17:58:35;4.12;;;2.08;;
75548;SDS011;64133;56.002;37.208;2023-07-13T18:03:40;3.25;;;2.30;;
75548;SDS011;64133;56.002;37.208;2023-07-13T18:08:54;3.45;;;2.05;;
75548;SDS011;64133;56.002;37.208;2023-07-13T18:13:52;4.90;;;1.82;;
75548;SDS011;64133;56.002;37.208;2023-07-13T18:18:57;5.42;;;2.62;;
75548;SDS011;64133;56.002;37.208;2023-07-13T18:24:02;4.87;;;2.25;;
75548;SDS011;64133;56.002;37.208;2023-07-13T18:29:07;3.90;;;2.40;;
75548;SDS011;64133;56.002;37.208;2023-07-13T18:34:13;3.33;;;1.85;;
75548;SDS011;64133;56.002;37.208;2023-07-13T18:39:18;6.20;;;2.22;;
75548;SDS011;64133;56.002;37.208;2023-07-13T18:50:00;5.05;;;1.82;;
75548;SDS011;64133;56.002;37.208;2023-07-13T18:55:11;5.58;;;2.30;;
75548;SDS011;64133;56.002;37.208;2023-07-13T19:00:23;3.27;;;1.90;;
75548;SDS011;64133;56.002;37.208;2023-07-13T19:05:29;4.85;;;2.33;;
75548;SDS011;64133;56.002;37.208;2023-07-13T19:10:34;4.12;;;2.10;;
75548;SDS011;64133;56.002;37.208;2023-07-13T19:15:42;4.35;;;2.20;;
75548;SDS011;64133;56.002;37.208;2023-07-13T19:20:47;5.08;;;2.45;;
75548;SDS011;64133;56.002;37.208;2023-07-13T19:25:52;4.30;;;2.35;;
75548;SDS011;64133;56.002;37.208;2023-07-13T19:30:57;5.40;;;2.10;;
75548;SDS011;64133;56.002;37.208;2023-07-13T19:36:02;4.60;;;1.98;;
75548;SDS011;64133;56.002;37.208;2023-07-13T19:41:13;3.92;;;1.30;;
75548;SDS011;64133;56.002;37.208;2023-07-13T19:46:22;4.45;;;1.90;;
75548;SDS011;64133;56.002;37.208;2023-07-13T19:51:29;2.80;;;1.62;;
75548;SDS011;64133;56.002;37.208;2023-07-13T19:56:37;4.53;;;1.98;;
75548;SDS011;64133;56.002;37.208;2023-07-13T20:01:45;2.40;;;1.42;;
75548;SDS011;64133;56.002;37.208;2023-07-13T20:06:53;3.55;;;2.15;;
75548;SDS011;64133;56.002;37.208;2023-07-13T20:12:00;3.70;;;1.85;;
75548;SDS011;64133;56.002;37.208;2023-07-13T20:17:13;2.62;;;1.80;;
75548;SDS011;64133;56.002;37.208;2023-07-13T20:22:36;3.10;;;1.40;;
75548;SDS011;64133;56.002;37.208;2023-07-13T20:27:41;3.60;;;2.00;;
75548;SDS011;64133;56.002;37.208;2023-07-13T20:33:03;3.77;;;1.72;;
75548;SDS011;64133;56.002;37.208;2023-07-13T20:43:58;3.45;;;2.10;;
75548;SDS011;64133;56.002;37.208;2023-07-13T20:49:04;4.50;;;2.08;;
75548;SDS011;64133;56.002;37.208;2023-07-13T20:54:35;3.05;;;2.00;;
75548;SDS011;64133;56.002;37.208;2023-07-13T20:59:44;2.65;;;1.87;;
75548;SDS011;64133;56.002;37.208;2023-07-13T21:04:51;5.17;;;1.95;;
75548;SDS011;64133;56.002;37.208;2023-07-13T21:09:55;3.85;;;2.47;;
75548;SDS011;64133;56.002;37.208;2023-07-13T21:20:18;3.52;;;2.25;;
75548;SDS011;64133;56.002;37.208;2023-07-13T21:25:25;4.87;;;2.62;;
75548;SDS011;64133;56.002;37.208;2023-07-13T21:30:29;5.12;;;2.25;;
75548;SDS011;64133;56.002;37.208;2023-07-13T21:35:35;6.58;;;2.75;;
75548;SDS011;64133;56.002;37.208;2023-07-13T21:40:40;3.67;;;2.02;;
75548;SDS011;64133;56.002;37.208;2023-07-13T21:45:45;3.75;;;2.40;;
75548;SDS011;64133;56.002;37.208;2023-07-13T21:50:51;4.22;;;2.60;;
75548;SDS011;64133;56.002;37.208;2023-07-13T21:55:56;3.85;;;2.47;;
75548;SDS011;64133;56.002;37.208;2023-07-13T22:01:11;4.95;;;2.15;;
75548;SDS011;64133;56.002;37.208;2023-07-13T22:06:40;3.40;;;1.70;;
75548;SDS011;64133;56.002;37.208;2023-07-13T22:11:45;3.77;;;1.87;;
75548;SDS011;64133;56.002;37.208;2023-07-13T22:16:55;5.03;;;2.20;;
75548;SDS011;64133;56.002;37.208;2023-07-13T22:22:01;6.12;;;2.30;;
75548;SDS011;64133;56.002;37.208;2023-07-13T22:27:09;4.33;;;2.05;;
75548;SDS011;64133;56.002;37.208;2023-07-13T22:32:17;3.90;;;1.92;;
75548;SDS011;64133;56.002;37.208;2023-07-13T22:37:21;4.58;;;1.77;;
75548;SDS011;64133;56.002;37.208;2023-07-13T22:42:26;4.70;;;1.62;;
75548;SDS011;64133;56.002;37.208;2023-07-13T22:47:31;3.70;;;1.62;;
75548;SDS011;64133;56.002;37.208;2023-07-13T22:52:36;4.40;;;2.00;;
75548;SDS011;64133;56.002;37.208;2023-07-13T22:57:41;4.33;;;2.00;;
75548;SDS011;64133;56.002;37.208;2023-07-13T23:02:46;3.98;;;2.10;;
75548;SDS011;64133;56.002;37.208;2023-07-13T23:07:51;4.25;;;2.00;;
75548;SDS011;64133;56.002;37.208;2023-07-13T23:12:56;3.95;;;2.25;;
75548;SDS011;64133;56.002;37.208;2023-07-13T23:18:01;6.67;;;2.15;;
75548;SDS011;64133;56.002;37.208;2023-07-13T23:23:08;3.35;;;1.92;;
75548;SDS011;64133;56.002;37.208;2023-07-13T23:28:13;6.87;;;2.17;;
75548;SDS011;64133;56.002;37.208;2023-07-13T23:33:20;3.45;;;1.57;;
75548;SDS011;64133;56.002;37.208;2023-07-13T23:38:24;4.22;;;1.80;;
75548;SDS011;64133;56.002;37.208;2023-07-13T23:43:29;4.28;;;1.60;;
75548;SDS011;64133;56.002;37.208;2023-07-13T23:48:34;3.55;;;1.60;;
75548;SDS011;64133;56.002;37.208;2023-07-13T23:53:41;3.92;;;1.70;;
75548;SDS011;64133;56.002;37.208;2023-07-13T23:58:46;3.12;;;1.80;;
